sensor_id;sensor_type;location;lat;lon;timestamp;temperature;humidity
45096;DHT22;30858;51.108;8.068;2023-02-03T00:00:04;7.50;99.90
45096;DHT22;30858;51.108;8.068;2023-02-03T00:02:30;7.40;99.90
45096;DHT22;30858;51.108;8.068;2023-02-03T00:04:55;7.40;99.90
45096;DHT22;30858;51.108;8.068;2023-02-03T00:07:21;7.40;99.90
45096;DHT22;30858;51.108;8.068;2023-02-03T00:09:46;7.40;99.90
45096;DHT22;30858;51.108;8.068;2023-02-03T00:12:12;7.40;99.90
45096;DHT22;30858;51.108;8.068;2023-02-03T00:14:38;7.40;99.90
45096;DHT22;30858;51.108;8.068;2023-02-03T00:17:04;7.40;99.90
45096;DHT22;30858;51.108;8.068;2023-02-03T00:19:30;7.40;99.90
45096;DHT22;30858;51.108;8.068;2023-02-03T00:21:56;7.40;99.90
45096;DHT22;30858;51.108;8.068;2023-02-03T00:24:21;7.40;99.90
45096;DHT22;30858;51.108;8.068;2023-02-03T00:26:48;7.40;99.90
45096;DHT22;30858;51.108;8.068;2023-02-03T00:29:14;7.30;99.90
45096;DHT22;30858;51.108;8.068;2023-02-03T00:31:40;7.20;99.90
45096;DHT22;30858;51.108;8.068;2023-02-03T00:34:05;7.20;99.90
45096;DHT22;30858;51.108;8.068;2023-02-03T00:36:31;7.30;99.90
45096;DHT22;30858;51.108;8.068;2023-02-03T00:38:57;7.20;99.90
45096;DHT22;30858;51.108;8.068;2023-02-03T00:41:28;7.20;99.90
45096;DHT22;30858;51.108;8.068;2023-02-03T00:43:54;7.30;99.90
45096;DHT22;30858;51.108;8.068;2023-02-03T00:46:20;7.30;99.90
45096;DHT22;30858;51.108;8.068;2023-02-03T00:48:45;7.30;99.90
45096;DHT22;30858;51.108;8.068;2023-02-03T00:51:11;7.30;99.90
45096;DHT22;30858;51.108;8.068;2023-02-03T00:53:36;7.30;99.90
45096;DHT22;30858;51.108;8.068;2023-02-03T00:56:02;7.30;99.90
45096;DHT22;30858;51.108;8.068;2023-02-03T00:58:28;7.30;99.90
45096;DHT22;30858;51.108;8.068;2023-02-03T01:00:55;7.30;99.90
45096;DHT22;30858;51.108;8.068;2023-02-03T01:03:21;7.30;99.90
45096;DHT22;30858;51.108;8.068;2023-02-03T01:05:47;7.30;99.90
45096;DHT22;30858;51.108;8.068;2023-02-03T01:08:12;7.30;99.90
45096;DHT22;30858;51.108;8.068;2023-02-03T01:10:39;7.30;99.90
45096;DHT22;30858;51.108;8.068;2023-02-03T01:13:04;7.40;99.90
45096;DHT22;30858;51.108;8.068;2023-02-03T01:15:30;7.40;99.90
45096;DHT22;30858;51.108;8.068;2023-02-03T01:17:55;7.40;99.90
45096;DHT22;30858;51.108;8.068;2023-02-03T01:20:21;7.40;99.90
45096;DHT22;30858;51.108;8.068;2023-02-03T01:22:48;7.40;99.90
45096;DHT22;30858;51.108;8.068;2023-02-03T01:25:14;7.40;99.90
45096;DHT22;30858;51.108;8.068;2023-02-03T01:27:39;7.30;99.90
45096;DHT22;30858;51.108;8.068;2023-02-03T01:30:05;7.30;99.90
45096;DHT22;30858;51.108;8.068;2023-02-03T01:32:30;7.30;99.90
45096;DHT22;30858;51.108;8.068;2023-02-03T01:34:56;7.40;99.90
45096;DHT22;30858;51.108;8.068;2023-02-03T01:37:21;7.40;99.90
45096;DHT22;30858;51.108;8.068;2023-02-03T01:39:47;7.30;99.90
45096;DHT22;30858;51.108;8.068;2023-02-03T01:42:13;7.40;99.90
45096;DHT22;30858;51.108;8.068;2023-02-03T01:44:47;7.40;99.90
45096;DHT22;30858;51.108;8.068;2023-02-03T01:47:21;7.40;99.90
45096;DHT22;30858;51.108;8.068;2023-02-03T01:50:02;7.40;99.90
45096;DHT22;30858;51.108;8.068;2023-02-03T01:52:30;7.30;99.90
45096;DHT22;30858;51.108;8.068;2023-02-03T01:54:58;7.40;99.90
45096;DHT22;30858;51.108;8.068;2023-02-03T01:57:32;7.30;99.90
45096;DHT22;30858;51.108;8.068;2023-02-03T01:59:58;7.40;99.90
45096;DHT22;30858;51.108;8.068;2023-02-03T02:02:25;7.40;99.90
45096;DHT22;30858;51.108;8.068;2023-02-03T02:05:22;7.40;99.90
45096;DHT22;30858;51.108;8.068;2023-02-03T02:07:49;7.40;99.90
45096;DHT22;30858;51.108;8.068;2023-02-03T02:10:15;7.40;99.90
45096;DHT22;30858;51.108;8.068;2023-02-03T02:12:41;7.30;99.90
45096;DHT22;30858;51.108;8.068;2023-02-03T02:15:08;7.40;99.90
45096;DHT22;30858;51.108;8.068;2023-02-03T02:17:50;7.40;99.90
45096;DHT22;30858;51.108;8.068;2023-02-03T02:31:56;7.40;99.90
45096;DHT22;30858;51.108;8.068;2023-02-03T02:34:49;7.30;99.90
45096;DHT22;30858;51.108;8.068;2023-02-03T02:42:41;7.30;99.90
45096;DHT22;30858;51.108;8.068;2023-02-03T02:45:23;7.30;99.90
45096;DHT22;30858;51.108;8.068;2023-02-03T02:47:54;7.30;99.90
45096;DHT22;30858;51.108;8.068;2023-02-03T02:50:23;7.30;99.90
45096;DHT22;30858;51.108;8.068;2023-02-03T02:52:52;7.40;99.90
45096;DHT22;30858;51.108;8.068;2023-02-03T02:55:24;7.50;99.90
45096;DHT22;30858;51.108;8.068;2023-02-03T02:57:54;7.50;99.90
45096;DHT22;30858;51.108;8.068;2023-02-03T03:00:21;7.40;99.90
45096;DHT22;30858;51.108;8.068;2023-02-03T03:02:47;7.50;99.90
45096;DHT22;30858;51.108;8.068;2023-02-03T03:05:13;7.50;99.90
45096;DHT22;30858;51.108;8.068;2023-02-03T03:07:47;7.40;99.90
45096;DHT22;30858;51.108;8.068;2023-02-03T03:10:15;7.40;99.90
45096;DHT22;30858;51.108;8.068;2023-02-03T03:12:48;7.40;99.90
45096;DHT22;30858;51.108;8.068;2023-02-03T03:15:21;7.40;99.90
45096;DHT22;30858;51.108;8.068;2023-02-03T03:18:00;7.40;99.90
45096;DHT22;30858;51.108;8.068;2023-02-03T03:20:28;7.40;99.90
45096;DHT22;30858;51.108;8.068;2023-02-03T03:22:58;7.40;99.90
45096;DHT22;30858;51.108;8.068;2023-02-03T03:25:35;7.40;99.90
45096;DHT22;30858;51.108;8.068;2023-02-03T03:28:06;7.50;99.90
45096;DHT22;30858;51.108;8.068;2023-02-03T03:30:33;7.40;99.90
45096;DHT22;30858;51.108;8.068;2023-02-03T03:32:59;7.40;99.90
45096;DHT22;30858;51.108;8.068;2023-02-03T03:35:38;7.40;99.90
45096;DHT22;30858;51.108;8.068;2023-02-03T03:38:08;7.40;99.90
45096;DHT22;30858;51.108;8.068;2023-02-03T03:40:52;7.40;99.90
45096;DHT22;30858;51.108;8.068;2023-02-03T03:43:22;7.40;99.90
45096;DHT22;30858;51.108;8.068;2023-02-03T03:46:02;7.30;99.90
45096;DHT22;30858;51.108;8.068;2023-02-03T03:48:35;7.40;99.90
45096;DHT22;30858;51.108;8.068;2023-02-03T03:51:05;7.40;99.90
45096;DHT22;30858;51.108;8.068;2023-02-03T03:53:32;7.40;99.90
45096;DHT22;30858;51.108;8.068;2023-02-03T03:56:00;7.40;99.90
45096;DHT22;30858;51.108;8.068;2023-02-03T03:58:30;7.40;99.90
45096;DHT22;30858;51.108;8.068;2023-02-03T04:00:59;7.40;99.90
45096;DHT22;30858;51.108;8.068;2023-02-03T04:03:38;7.30;99.90
45096;DHT22;30858;51.108;8.068;2023-02-03T04:06:05;7.30;99.90
45096;DHT22;30858;51.108;8.068;2023-02-03T04:08:30;7.20;99.90
45096;DHT22;30858;51.108;8.068;2023-02-03T04:10:56;7.20;99.90
45096;DHT22;30858;51.108;8.068;2023-02-03T04:13:21;7.20;99.90
45096;DHT22;30858;51.108;8.068;2023-02-03T04:15:47;7.30;99.90
45096;DHT22;30858;51.108;8.068;2023-02-03T04:18:14;7.30;99.90
45096;DHT22;30858;51.108;8.068;2023-02-03T04:20:39;7.30;99.90
45096;DHT22;30858;51.108;8.068;2023-02-03T04:23:05;7.30;99.90
45096;DHT22;30858;51.108;8.068;2023-02-03T04:25:31;7.30;99.90
45096;DHT22;30858;51.108;8.068;2023-02-03T04:27:56;7.20;99.90
45096;DHT22;30858;51.108;8.068;2023-02-03T04:30:22;7.20;99.90
45096;DHT22;30858;51.108;8.068;2023-02-03T04:32:48;7.20;99.90
45096;DHT22;30858;51.108;8.068;2023-02-03T04:35:14;7.20;99.90
45096;DHT22;30858;51.108;8.068;2023-02-03T04:37:39;7.30;99.90
45096;DHT22;30858;51.108;8.068;2023-02-03T04:40:06;7.40;99.90
45096;DHT22;30858;51.108;8.068;2023-02-03T04:42:32;7.40;99.90
45096;DHT22;30858;51.108;8.068;2023-02-03T04:44:57;7.30;99.90
45096;DHT22;30858;51.108;8.068;2023-02-03T04:47:23;7.20;99.90
45096;DHT22;30858;51.108;8.068;2023-02-03T04:49:48;7.30;99.90
45096;DHT22;30858;51.108;8.068;2023-02-03T04:52:14;7.30;99.90
45096;DHT22;30858;51.108;8.068;2023-02-03T04:54:40;7.40;99.90
45096;DHT22;30858;51.108;8.068;2023-02-03T04:57:06;7.40;99.90
45096;DHT22;30858;51.108;8.068;2023-02-03T04:59:31;7.30;99.90
45096;DHT22;30858;51.108;8.068;2023-02-03T05:01:57;7.30;99.90
45096;DHT22;30858;51.108;8.068;2023-02-03T05:04:22;7.20;99.90
45096;DHT22;30858;51.108;8.068;2023-02-03T05:06:48;7.20;99.90
45096;DHT22;30858;51.108;8.068;2023-02-03T05:09:14;7.30;99.90
45096;DHT22;30858;51.108;8.068;2023-02-03T05:11:40;7.40;99.90
45096;DHT22;30858;51.108;8.068;2023-02-03T05:14:06;7.50;99.90
45096;DHT22;30858;51.108;8.068;2023-02-03T05:16:31;7.40;99.90
45096;DHT22;30858;51.108;8.068;2023-02-03T05:18:57;7.40;99.90
45096;DHT22;30858;51.108;8.068;2023-02-03T05:21:23;7.40;99.90
45096;DHT22;30858;51.108;8.068;2023-02-03T05:23:48;7.40;99.90
45096;DHT22;30858;51.108;8.068;2023-02-03T05:26:14;7.40;99.90
45096;DHT22;30858;51.108;8.068;2023-02-03T05:28:39;7.50;99.90
45096;DHT22;30858;51.108;8.068;2023-02-03T05:31:05;7.50;99.90
45096;DHT22;30858;51.108;8.068;2023-02-03T05:33:30;7.50;99.90
45096;DHT22;30858;51.108;8.068;2023-02-03T05:35:56;7.50;99.90
45096;DHT22;30858;51.108;8.068;2023-02-03T05:38:21;7.50;99.90
45096;DHT22;30858;51.108;8.068;2023-02-03T05:40:48;7.50;99.90
45096;DHT22;30858;51.108;8.068;2023-02-03T05:43:32;7.40;99.90
45096;DHT22;30858;51.108;8.068;2023-02-03T05:45:59;7.50;99.90
45096;DHT22;30858;51.108;8.068;2023-02-03T05:48:25;7.50;99.90
45096;DHT22;30858;51.108;8.068;2023-02-03T05:50:50;7.50;99.90
45096;DHT22;30858;51.108;8.068;2023-02-03T05:53:16;7.50;99.90
45096;DHT22;30858;51.108;8.068;2023-02-03T05:55:41;7.50;99.90
45096;DHT22;30858;51.108;8.068;2023-02-03T05:58:07;7.50;99.90
45096;DHT22;30858;51.108;8.068;2023-02-03T06:00:33;7.40;99.90
45096;DHT22;30858;51.108;8.068;2023-02-03T06:03:00;7.50;99.90
45096;DHT22;30858;51.108;8.068;2023-02-03T06:05:27;7.50;99.90
45096;DHT22;30858;51.108;8.068;2023-02-03T06:07:53;7.50;99.90
45096;DHT22;30858;51.108;8.068;2023-02-03T06:10:18;7.50;99.90
45096;DHT22;30858;51.108;8.068;2023-02-03T06:12:44;7.40;99.90
45096;DHT22;30858;51.108;8.068;2023-02-03T06:15:10;7.50;99.90
45096;DHT22;30858;51.108;8.068;2023-02-03T06:17:36;7.50;99.90
45096;DHT22;30858;51.108;8.068;2023-02-03T06:20:06;7.50;99.90
45096;DHT22;30858;51.108;8.068;2023-02-03T06:22:32;7.50;99.90
45096;DHT22;30858;51.108;8.068;2023-02-03T06:24:58;7.50;99.90
45096;DHT22;30858;51.108;8.068;2023-02-03T06:27:24;7.50;99.90
45096;DHT22;30858;51.108;8.068;2023-02-03T06:29:49;7.60;99.90
45096;DHT22;30858;51.108;8.068;2023-02-03T06:32:15;7.60;99.90
45096;DHT22;30858;51.108;8.068;2023-02-03T06:34:41;7.50;99.90
45096;DHT22;30858;51.108;8.068;2023-02-03T06:37:06;7.50;99.90
45096;DHT22;30858;51.108;8.068;2023-02-03T06:39:32;7.50;99.90
45096;DHT22;30858;51.108;8.068;2023-02-03T06:41:58;7.40;99.90
45096;DHT22;30858;51.108;8.068;2023-02-03T06:44:24;7.40;99.90
45096;DHT22;30858;51.108;8.068;2023-02-03T06:46:49;7.40;99.90
45096;DHT22;30858;51.108;8.068;2023-02-03T06:49:16;7.40;99.90
45096;DHT22;30858;51.108;8.068;2023-02-03T06:51:42;7.40;99.90
45096;DHT22;30858;51.108;8.068;2023-02-03T06:54:09;7.40;99.90
45096;DHT22;30858;51.108;8.068;2023-02-03T06:56:35;7.30;99.90
45096;DHT22;30858;51.108;8.068;2023-02-03T06:59:00;7.30;99.90
45096;DHT22;30858;51.108;8.068;2023-02-03T07:01:26;7.30;99.90
45096;DHT22;30858;51.108;8.068;2023-02-03T07:03:54;7.30;99.90
45096;DHT22;30858;51.108;8.068;2023-02-03T07:06:22;7.30;99.90
45096;DHT22;30858;51.108;8.068;2023-02-03T07:08:48;7.30;99.90
45096;DHT22;30858;51.108;8.068;2023-02-03T07:11:13;7.30;99.90
45096;DHT22;30858;51.108;8.068;2023-02-03T07:13:39;7.30;99.90
45096;DHT22;30858;51.108;8.068;2023-02-03T07:16:05;7.30;99.90
45096;DHT22;30858;51.108;8.068;2023-02-03T07:18:30;7.30;99.90
45096;DHT22;30858;51.108;8.068;2023-02-03T07:20:56;7.30;99.90
45096;DHT22;30858;51.108;8.068;2023-02-03T07:23:21;7.30;99.90
45096;DHT22;30858;51.108;8.068;2023-02-03T07:25:47;7.20;99.90
45096;DHT22;30858;51.108;8.068;2023-02-03T07:28:13;7.30;99.90
45096;DHT22;30858;51.108;8.068;2023-02-03T07:30:38;7.20;99.90
45096;DHT22;30858;51.108;8.068;2023-02-03T07:33:04;7.30;99.90
45096;DHT22;30858;51.108;8.068;2023-02-03T07:35:29;7.30;99.90
45096;DHT22;30858;51.108;8.068;2023-02-03T07:37:55;7.30;99.90
45096;DHT22;30858;51.108;8.068;2023-02-03T07:40:20;7.30;99.90
45096;DHT22;30858;51.108;8.068;2023-02-03T07:42:47;7.30;99.90
45096;DHT22;30858;51.108;8.068;2023-02-03T07:45:15;7.40;99.90
45096;DHT22;30858;51.108;8.068;2023-02-03T07:47:42;7.40;99.90
45096;DHT22;30858;51.108;8.068;2023-02-03T07:50:09;7.40;99.90
45096;DHT22;30858;51.108;8.068;2023-02-03T07:52:35;7.40;99.90
45096;DHT22;30858;51.108;8.068;2023-02-03T07:55:01;7.40;99.90
45096;DHT22;30858;51.108;8.068;2023-02-03T07:57:27;7.30;99.90
45096;DHT22;30858;51.108;8.068;2023-02-03T07:59:53;7.20;99.90
45096;DHT22;30858;51.108;8.068;2023-02-03T08:02:18;7.30;99.90
45096;DHT22;30858;51.108;8.068;2023-02-03T08:04:44;7.30;99.90
45096;DHT22;30858;51.108;8.068;2023-02-03T08:07:09;7.30;99.90
45096;DHT22;30858;51.108;8.068;2023-02-03T08:09:35;7.30;99.90
45096;DHT22;30858;51.108;8.068;2023-02-03T08:12:00;7.20;99.90
45096;DHT22;30858;51.108;8.068;2023-02-03T08:14:26;7.20;99.90
45096;DHT22;30858;51.108;8.068;2023-02-03T08:16:51;7.20;99.90
45096;DHT22;30858;51.108;8.068;2023-02-03T08:19:17;7.20;99.90
45096;DHT22;30858;51.108;8.068;2023-02-03T08:21:42;7.30;99.90
45096;DHT22;30858;51.108;8.068;2023-02-03T08:24:08;7.30;99.90
45096;DHT22;30858;51.108;8.068;2023-02-03T08:26:35;7.30;99.90
45096;DHT22;30858;51.108;8.068;2023-02-03T08:29:01;7.20;99.90
45096;DHT22;30858;51.108;8.068;2023-02-03T08:31:28;7.20;99.90
45096;DHT22;30858;51.108;8.068;2023-02-03T08:33:53;7.30;99.90
45096;DHT22;30858;51.108;8.068;2023-02-03T08:36:19;7.30;99.90
45096;DHT22;30858;51.108;8.068;2023-02-03T08:38:44;7.20;99.90
45096;DHT22;30858;51.108;8.068;2023-02-03T08:41:11;7.20;99.90
45096;DHT22;30858;51.108;8.068;2023-02-03T08:43:37;7.20;99.90
45096;DHT22;30858;51.108;8.068;2023-02-03T08:46:04;7.20;99.90
45096;DHT22;30858;51.108;8.068;2023-02-03T08:48:30;7.20;99.90
45096;DHT22;30858;51.108;8.068;2023-02-03T08:50:56;7.20;99.90
45096;DHT22;30858;51.108;8.068;2023-02-03T08:53:22;7.20;99.90
45096;DHT22;30858;51.108;8.068;2023-02-03T08:55:47;7.20;99.90
45096;DHT22;30858;51.108;8.068;2023-02-03T08:58:13;7.20;99.90
45096;DHT22;30858;51.108;8.068;2023-02-03T09:00:38;7.20;99.90
45096;DHT22;30858;51.108;8.068;2023-02-03T09:03:04;7.20;99.90
45096;DHT22;30858;51.108;8.068;2023-02-03T09:05:30;7.10;99.90
45096;DHT22;30858;51.108;8.068;2023-02-03T09:07:56;7.20;99.90
45096;DHT22;30858;51.108;8.068;2023-02-03T09:10:22;7.20;99.90
45096;DHT22;30858;51.108;8.068;2023-02-03T09:12:47;7.20;99.90
45096;DHT22;30858;51.108;8.068;2023-02-03T09:15:13;7.30;99.90
45096;DHT22;30858;51.108;8.068;2023-02-03T09:17:39;7.20;99.90
45096;DHT22;30858;51.108;8.068;2023-02-03T09:20:05;7.20;99.90
45096;DHT22;30858;51.108;8.068;2023-02-03T09:22:30;7.30;99.90
45096;DHT22;30858;51.108;8.068;2023-02-03T09:24:56;7.20;99.90
45096;DHT22;30858;51.108;8.068;2023-02-03T09:27:22;7.30;99.90
45096;DHT22;30858;51.108;8.068;2023-02-03T09:29:47;7.30;99.90
45096;DHT22;30858;51.108;8.068;2023-02-03T09:32:13;7.30;99.90
45096;DHT22;30858;51.108;8.068;2023-02-03T09:34:38;7.30;99.90
45096;DHT22;30858;51.108;8.068;2023-02-03T09:37:06;7.30;99.90
45096;DHT22;30858;51.108;8.068;2023-02-03T09:39:31;7.30;99.90
45096;DHT22;30858;51.108;8.068;2023-02-03T09:42:16;7.20;99.90
45096;DHT22;30858;51.108;8.068;2023-02-03T09:47:19;7.30;99.90
45096;DHT22;30858;51.108;8.068;2023-02-03T09:49:55;7.30;99.90
45096;DHT22;30858;51.108;8.068;2023-02-03T09:52:31;7.30;99.90
45096;DHT22;30858;51.108;8.068;2023-02-03T09:55:23;7.30;99.90
45096;DHT22;30858;51.108;8.068;2023-02-03T09:58:08;7.20;99.90
45096;DHT22;30858;51.108;8.068;2023-02-03T10:00:45;7.20;99.90
45096;DHT22;30858;51.108;8.068;2023-02-03T10:03:21;7.30;99.90
45096;DHT22;30858;51.108;8.068;2023-02-03T10:06:52;7.30;99.90
45096;DHT22;30858;51.108;8.068;2023-02-03T10:09:16;7.30;99.90
45096;DHT22;30858;51.108;8.068;2023-02-03T10:14:53;7.40;99.90
45096;DHT22;30858;51.108;8.068;2023-02-03T10:17:31;7.40;99.90
45096;DHT22;30858;51.108;8.068;2023-02-03T10:20:41;7.40;99.90
45096;DHT22;30858;51.108;8.068;2023-02-03T10:23:24;7.40;99.90
45096;DHT22;30858;51.108;8.068;2023-02-03T10:25:53;7.30;99.90
45096;DHT22;30858;51.108;8.068;2023-02-03T10:28:22;7.30;99.90
45096;DHT22;30858;51.108;8.068;2023-02-03T10:30:53;7.40;99.90
45096;DHT22;30858;51.108;8.068;2023-02-03T10:33:19;7.40;99.90
45096;DHT22;30858;51.108;8.068;2023-02-03T10:35:52;7.40;99.90
45096;DHT22;30858;51.108;8.068;2023-02-03T10:40:52;7.50;99.90
45096;DHT22;30858;51.108;8.068;2023-02-03T10:43:17;7.40;99.90
45096;DHT22;30858;51.108;8.068;2023-02-03T10:46:01;7.40;99.90
45096;DHT22;30858;51.108;8.068;2023-02-03T10:48:27;7.50;99.90
45096;DHT22;30858;51.108;8.068;2023-02-03T10:50:53;7.50;99.90
45096;DHT22;30858;51.108;8.068;2023-02-03T10:53:32;7.50;99.90
45096;DHT22;30858;51.108;8.068;2023-02-03T10:56:04;7.50;99.90
45096;DHT22;30858;51.108;8.068;2023-02-03T10:58:32;7.60;99.90
45096;DHT22;30858;51.108;8.068;2023-02-03T11:01:08;7.60;99.90
45096;DHT22;30858;51.108;8.068;2023-02-03T11:03:34;7.60;99.90
45096;DHT22;30858;51.108;8.068;2023-02-03T11:08:40;7.60;99.90
45096;DHT22;30858;51.108;8.068;2023-02-03T11:11:08;7.60;99.90
45096;DHT22;30858;51.108;8.068;2023-02-03T11:13:37;7.50;99.90
45096;DHT22;30858;51.108;8.068;2023-02-03T11:16:08;7.60;99.90
45096;DHT22;30858;51.108;8.068;2023-02-03T11:24:16;7.60;99.90
45096;DHT22;30858;51.108;8.068;2023-02-03T11:26:46;7.60;99.90
45096;DHT22;30858;51.108;8.068;2023-02-03T11:29:30;7.60;99.90
45096;DHT22;30858;51.108;8.068;2023-02-03T11:32:21;7.60;99.90
45096;DHT22;30858;51.108;8.068;2023-02-03T11:34:55;7.50;99.90
45096;DHT22;30858;51.108;8.068;2023-02-03T11:37:41;7.60;99.90
45096;DHT22;30858;51.108;8.068;2023-02-03T11:42:34;7.60;99.90
45096;DHT22;30858;51.108;8.068;2023-02-03T11:45:26;7.60;99.90
45096;DHT22;30858;51.108;8.068;2023-02-03T11:47:53;7.60;99.90
45096;DHT22;30858;51.108;8.068;2023-02-03T11:53:05;7.60;99.90
45096;DHT22;30858;51.108;8.068;2023-02-03T11:55:52;7.60;99.90
45096;DHT22;30858;51.108;8.068;2023-02-03T12:10:03;7.60;99.90
45096;DHT22;30858;51.108;8.068;2023-02-03T12:20:58;7.60;99.90
45096;DHT22;30858;51.108;8.068;2023-02-03T12:23:49;7.70;99.90
45096;DHT22;30858;51.108;8.068;2023-02-03T12:26:23;7.70;99.90
45096;DHT22;30858;51.108;8.068;2023-02-03T12:29:10;7.70;99.90
45096;DHT22;30858;51.108;8.068;2023-02-03T12:31:44;7.70;99.90
45096;DHT22;30858;51.108;8.068;2023-02-03T12:34:37;7.70;99.90
45096;DHT22;30858;51.108;8.068;2023-02-03T12:37:11;7.80;99.90
45096;DHT22;30858;51.108;8.068;2023-02-03T12:39:43;7.70;99.90
45096;DHT22;30858;51.108;8.068;2023-02-03T12:42:34;7.70;99.90
45096;DHT22;30858;51.108;8.068;2023-02-03T12:45:17;7.70;99.90
45096;DHT22;30858;51.108;8.068;2023-02-03T12:47:47;7.70;99.90
45096;DHT22;30858;51.108;8.068;2023-02-03T12:52:46;7.70;99.90
45096;DHT22;30858;51.108;8.068;2023-02-03T13:03:13;7.70;99.90
45096;DHT22;30858;51.108;8.068;2023-02-03T13:08:49;7.70;99.90
45096;DHT22;30858;51.108;8.068;2023-02-03T13:13:55;7.70;99.90
45096;DHT22;30858;51.108;8.068;2023-02-03T13:16:29;7.80;99.90
45096;DHT22;30858;51.108;8.068;2023-02-03T13:19:05;7.70;99.90
45096;DHT22;30858;51.108;8.068;2023-02-03T13:21:32;7.80;99.90
45096;DHT22;30858;51.108;8.068;2023-02-03T13:23:58;7.70;99.90
45096;DHT22;30858;51.108;8.068;2023-02-03T13:26:43;7.70;99.90
45096;DHT22;30858;51.108;8.068;2023-02-03T13:29:31;7.70;99.90
45096;DHT22;30858;51.108;8.068;2023-02-03T13:35:24;7.80;99.90
45096;DHT22;30858;51.108;8.068;2023-02-03T13:38:21;7.80;99.90
45096;DHT22;30858;51.108;8.068;2023-02-03T13:41:29;7.70;99.90
45096;DHT22;30858;51.108;8.068;2023-02-03T13:43:53;7.70;99.90
45096;DHT22;30858;51.108;8.068;2023-02-03T13:46:25;7.80;99.90
45096;DHT22;30858;51.108;8.068;2023-02-03T13:48:52;7.80;99.90
45096;DHT22;30858;51.108;8.068;2023-02-03T13:51:41;7.80;99.90
45096;DHT22;30858;51.108;8.068;2023-02-03T13:54:36;7.80;99.90
45096;DHT22;30858;51.108;8.068;2023-02-03T13:57:14;7.90;99.90
45096;DHT22;30858;51.108;8.068;2023-02-03T13:59:44;7.90;99.90
45096;DHT22;30858;51.108;8.068;2023-02-03T14:07:35;8.00;99.90
45096;DHT22;30858;51.108;8.068;2023-02-03T14:25:26;8.30;99.90
45096;DHT22;30858;51.108;8.068;2023-02-03T14:28:04;8.30;99.90
45096;DHT22;30858;51.108;8.068;2023-02-03T14:30:31;8.40;99.90
45096;DHT22;30858;51.108;8.068;2023-02-03T14:33:01;8.40;99.90
45096;DHT22;30858;51.108;8.068;2023-02-03T14:35:37;8.40;99.90
45096;DHT22;30858;51.108;8.068;2023-02-03T14:38:09;8.40;99.90
45096;DHT22;30858;51.108;8.068;2023-02-03T14:40:52;8.30;99.90
45096;DHT22;30858;51.108;8.068;2023-02-03T14:43:40;8.30;99.90
45096;DHT22;30858;51.108;8.068;2023-02-03T14:46:32;8.20;99.90
45096;DHT22;30858;51.108;8.068;2023-02-03T14:54:43;8.10;99.90
45096;DHT22;30858;51.108;8.068;2023-02-03T15:02:24;7.80;99.90
45096;DHT22;30858;51.108;8.068;2023-02-03T15:05:34;7.70;99.90
45096;DHT22;30858;51.108;8.068;2023-02-03T15:12:45;7.40;99.90
45096;DHT22;30858;51.108;8.068;2023-02-03T15:15:19;7.40;99.90
45096;DHT22;30858;51.108;8.068;2023-02-03T15:17:46;7.30;99.90
45096;DHT22;30858;51.108;8.068;2023-02-03T15:20:36;7.30;99.90
45096;DHT22;30858;51.108;8.068;2023-02-03T15:23:20;7.20;99.90
45096;DHT22;30858;51.108;8.068;2023-02-03T15:25:55;7.10;99.90
45096;DHT22;30858;51.108;8.068;2023-02-03T15:28:22;7.10;99.90
45096;DHT22;30858;51.108;8.068;2023-02-03T15:33:20;7.00;99.90
45096;DHT22;30858;51.108;8.068;2023-02-03T15:35:49;7.00;99.90
45096;DHT22;30858;51.108;8.068;2023-02-03T15:38:30;7.00;99.90
45096;DHT22;30858;51.108;8.068;2023-02-03T15:40:58;6.90;99.90
45096;DHT22;30858;51.108;8.068;2023-02-03T15:43:29;7.00;99.90
45096;DHT22;30858;51.108;8.068;2023-02-03T15:49:05;7.00;99.90
45096;DHT22;30858;51.108;8.068;2023-02-03T15:54:21;6.90;99.90
45096;DHT22;30858;51.108;8.068;2023-02-03T15:57:10;7.00;99.90
45096;DHT22;30858;51.108;8.068;2023-02-03T15:59:53;6.90;99.90
45096;DHT22;30858;51.108;8.068;2023-02-03T16:02:20;6.90;99.90
45096;DHT22;30858;51.108;8.068;2023-02-03T16:04:47;6.90;99.90
45096;DHT22;30858;51.108;8.068;2023-02-03T16:07:18;7.00;99.90
45096;DHT22;30858;51.108;8.068;2023-02-03T16:09:45;7.00;99.90
45096;DHT22;30858;51.108;8.068;2023-02-03T16:14:48;6.90;99.90
45096;DHT22;30858;51.108;8.068;2023-02-03T16:17:34;6.90;99.90
45096;DHT22;30858;51.108;8.068;2023-02-03T16:20:21;7.00;99.90
45096;DHT22;30858;51.108;8.068;2023-02-03T16:23:04;7.00;99.90
45096;DHT22;30858;51.108;8.068;2023-02-03T16:25:32;7.10;99.90
45096;DHT22;30858;51.108;8.068;2023-02-03T16:28:12;7.00;99.90
45096;DHT22;30858;51.108;8.068;2023-02-03T16:31:11;6.90;99.90
45096;DHT22;30858;51.108;8.068;2023-02-03T16:33:57;6.90;99.90
45096;DHT22;30858;51.108;8.068;2023-02-03T16:36:43;6.90;99.90
45096;DHT22;30858;51.108;8.068;2023-02-03T16:39:27;7.00;99.90
45096;DHT22;30858;51.108;8.068;2023-02-03T16:42:16;6.90;99.90
45096;DHT22;30858;51.108;8.068;2023-02-03T16:45:01;6.90;99.90
45096;DHT22;30858;51.108;8.068;2023-02-03T16:47:46;6.90;99.90
45096;DHT22;30858;51.108;8.068;2023-02-03T16:50:30;6.90;99.90
45096;DHT22;30858;51.108;8.068;2023-02-03T16:53:17;7.00;99.90
45096;DHT22;30858;51.108;8.068;2023-02-03T16:55:44;7.00;99.90
45096;DHT22;30858;51.108;8.068;2023-02-03T16:58:10;7.00;99.90
45096;DHT22;30858;51.108;8.068;2023-02-03T17:00:40;7.00;99.90
45096;DHT22;30858;51.108;8.068;2023-02-03T17:03:09;6.90;99.90
45096;DHT22;30858;51.108;8.068;2023-02-03T17:05:40;6.90;99.90
45096;DHT22;30858;51.108;8.068;2023-02-03T17:08:05;7.00;99.90
45096;DHT22;30858;51.108;8.068;2023-02-03T17:10:39;7.00;99.90
45096;DHT22;30858;51.108;8.068;2023-02-03T17:13:05;7.00;99.90
45096;DHT22;30858;51.108;8.068;2023-02-03T17:15:32;6.90;99.90
45096;DHT22;30858;51.108;8.068;2023-02-03T17:17:58;6.90;99.90
45096;DHT22;30858;51.108;8.068;2023-02-03T17:20:24;6.90;99.90
45096;DHT22;30858;51.108;8.068;2023-02-03T17:22:49;6.90;99.90
45096;DHT22;30858;51.108;8.068;2023-02-03T17:25:19;6.80;99.90
45096;DHT22;30858;51.108;8.068;2023-02-03T17:27:45;6.90;99.90
45096;DHT22;30858;51.108;8.068;2023-02-03T17:30:11;6.90;99.90
45096;DHT22;30858;51.108;8.068;2023-02-03T17:32:37;6.90;99.90
45096;DHT22;30858;51.108;8.068;2023-02-03T17:35:03;6.90;99.90
45096;DHT22;30858;51.108;8.068;2023-02-03T17:37:32;6.90;99.90
45096;DHT22;30858;51.108;8.068;2023-02-03T17:39:57;6.90;99.90
45096;DHT22;30858;51.108;8.068;2023-02-03T17:42:23;6.80;99.90
45096;DHT22;30858;51.108;8.068;2023-02-03T17:44:49;6.90;99.90
45096;DHT22;30858;51.108;8.068;2023-02-03T17:47:15;6.90;99.90
45096;DHT22;30858;51.108;8.068;2023-02-03T17:49:40;6.90;99.90
45096;DHT22;30858;51.108;8.068;2023-02-03T17:52:06;6.80;99.90
45096;DHT22;30858;51.108;8.068;2023-02-03T17:54:31;6.90;99.90
45096;DHT22;30858;51.108;8.068;2023-02-03T17:56:57;6.80;99.90
45096;DHT22;30858;51.108;8.068;2023-02-03T17:59:22;6.80;99.90
45096;DHT22;30858;51.108;8.068;2023-02-03T18:01:48;6.80;99.90
45096;DHT22;30858;51.108;8.068;2023-02-03T18:04:13;6.90;99.90
45096;DHT22;30858;51.108;8.068;2023-02-03T18:06:39;6.80;99.90
45096;DHT22;30858;51.108;8.068;2023-02-03T18:09:07;6.90;99.90